sensor_id;sensor_type;location;lat;lon;timestamp;pressure;altitude;pressure_sealevel;temperature;humidity
21359;BME280;13506;50.852;20.632;2024-01-11T00:00:14;99217.81;;;-4.51;60.67
21359;BME280;13506;50.852;20.632;2024-01-11T00:03:04;99222.91;;;-4.49;61.31
21359;BME280;13506;50.852;20.632;2024-01-11T00:05:32;99225.41;;;-4.52;61.19
21359;BME280;13506;50.852;20.632;2024-01-11T00:08:00;99226.25;;;-4.52;61.23
21359;BME280;13506;50.852;20.632;2024-01-11T00:10:27;99227.09;;;-4.51;61.18
21359;BME280;13506;50.852;20.632;2024-01-11T00:12:56;99226.22;;;-4.55;60.86
21359;BME280;13506;50.852;20.632;2024-01-11T00:15:23;99227.91;;;-4.54;61.14
21359;BME280;13506;50.852;20.632;2024-01-11T00:17:51;99224.56;;;-4.53;61.50
21359;BME280;13506;50.852;20.632;2024-01-11T00:20:21;99219.47;;;-4.51;61.31
21359;BME280;13506;50.852;20.632;2024-01-11T00:22:51;99232.94;;;-4.57;61.49
21359;BME280;13506;50.852;20.632;2024-01-11T00:25:18;99227.91;;;-4.54;61.46
21359;BME280;13506;50.852;20.632;2024-01-11T00:27:46;99222.84;;;-4.54;61.87
21359;BME280;13506;50.852;20.632;2024-01-11T00:30:14;99216.09;;;-4.52;61.31
21359;BME280;13506;50.852;20.632;2024-01-11T00:32:42;99209.25;;;-4.56;61.93
21359;BME280;13506;50.852;20.632;2024-01-11T00:35:10;99201.66;;;-4.56;61.78
21359;BME280;13506;50.852;20.632;2024-01-11T00:37:39;99199.97;;;-4.55;61.77
21359;BME280;13506;50.852;20.632;2024-01-11T00:40:08;99187.28;;;-4.54;62.03
21359;BME280;13506;50.852;20.632;2024-01-11T00:42:36;99192.34;;;-4.57;62.08
21359;BME280;13506;50.852;20.632;2024-01-11T00:45:05;99193.22;;;-4.55;61.35
21359;BME280;13506;50.852;20.632;2024-01-11T00:47:33;99185.59;;;-4.55;61.80
21359;BME280;13506;50.852;20.632;2024-01-11T00:50:01;99182.19;;;-4.57;61.47
21359;BME280;13506;50.852;20.632;2024-01-11T00:52:29;99177.88;;;-4.61;61.24
21359;BME280;13506;50.852;20.632;2024-01-11T00:55:00;99175.28;;;-4.64;61.92
21359;BME280;13506;50.852;20.632;2024-01-11T00:57:28;99163.38;;;-4.68;61.65
21359;BME280;13506;50.852;20.632;2024-01-11T00:59:56;99172.63;;;-4.70;62.00
21359;BME280;13506;50.852;20.632;2024-01-11T01:02:24;99165.00;;;-4.73;61.79
21359;BME280;13506;50.852;20.632;2024-01-11T01:04:52;99164.97;;;-4.76;61.86
21359;BME280;13506;50.852;20.632;2024-01-11T01:07:20;99170.03;;;-4.76;62.09
21359;BME280;13506;50.852;20.632;2024-01-11T01:09:47;99158.16;;;-4.77;61.65
21359;BME280;13506;50.852;20.632;2024-01-11T01:12:17;99158.06;;;-4.83;62.29
21359;BME280;13506;50.852;20.632;2024-01-11T01:14:44;99155.50;;;-4.83;62.26
21359;BME280;13506;50.852;20.632;2024-01-11T01:17:12;99161.41;;;-4.86;61.79
21359;BME280;13506;50.852;20.632;2024-01-11T01:19:40;99160.56;;;-4.86;62.01
21359;BME280;13506;50.852;20.632;2024-01-11T01:22:08;99148.69;;;-4.87;62.43
21359;BME280;13506;50.852;20.632;2024-01-11T01:24:36;99159.59;;;-4.92;61.52
21359;BME280;13506;50.852;20.632;2024-01-11T01:27:04;99154.50;;;-4.95;62.75
21359;BME280;13506;50.852;20.632;2024-01-11T01:29:35;99162.88;;;-4.99;62.39
21359;BME280;13506;50.852;20.632;2024-01-11T01:32:03;99162.81;;;-5.02;61.77
21359;BME280;13506;50.852;20.632;2024-01-11T01:34:31;99159.50;;;-4.99;62.20
21359;BME280;13506;50.852;20.632;2024-01-11T01:36:59;99173.78;;;-5.03;62.69
21359;BME280;13506;50.852;20.632;2024-01-11T01:39:27;99158.59;;;-5.01;62.03
21359;BME280;13506;50.852;20.632;2024-01-11T01:41:55;99176.31;;;-5.03;62.66
21359;BME280;13506;50.852;20.632;2024-01-11T01:44:23;99176.31;;;-5.03;62.24
21359;BME280;13506;50.852;20.632;2024-01-11T01:46:53;99170.34;;;-5.06;62.93
21359;BME280;13506;50.852;20.632;2024-01-11T01:49:21;99171.09;;;-5.12;62.52
21359;BME280;13506;50.852;20.632;2024-01-11T01:51:49;99165.06;;;-5.17;63.55
21359;BME280;13506;50.852;20.632;2024-01-11T01:54:19;99155.81;;;-5.15;62.94
21359;BME280;13506;50.852;20.632;2024-01-11T01:56:48;99155.81;;;-5.15;63.17
21359;BME280;13506;50.852;20.632;2024-01-11T01:59:17;99128.81;;;-5.13;62.85
21359;BME280;13506;50.852;20.632;2024-01-11T02:01:45;99137.25;;;-5.14;62.77
21359;BME280;13506;50.852;20.632;2024-01-11T02:04:14;99139.78;;;-5.14;63.07
21359;BME280;13506;50.852;20.632;2024-01-11T02:06:45;99132.19;;;-5.13;62.88
21359;BME280;13506;50.852;20.632;2024-01-11T02:09:14;99133.06;;;-5.11;63.41
21359;BME280;13506;50.852;20.632;2024-01-11T02:11:42;99133.97;;;-5.07;62.81
21359;BME280;13506;50.852;20.632;2024-01-11T02:14:11;99133.16;;;-5.04;63.04
21359;BME280;13506;50.852;20.632;2024-01-11T02:16:40;99130.66;;;-5.03;62.58
21359;BME280;13506;50.852;20.632;2024-01-11T02:19:13;99112.06;;;-5.02;62.84
21359;BME280;13506;50.852;20.632;2024-01-11T02:21:43;99107.84;;;-5.03;63.10
21359;BME280;13506;50.852;20.632;2024-01-11T02:24:12;99122.22;;;-5.03;63.26
21359;BME280;13506;50.852;20.632;2024-01-11T02:26:58;99118.81;;;-5.04;63.05
21359;BME280;13506;50.852;20.632;2024-01-11T02:29:27;99117.16;;;-5.02;62.79
21359;BME280;13506;50.852;20.632;2024-01-11T02:31:56;99101.81;;;-5.08;62.85
21359;BME280;13506;50.852;20.632;2024-01-11T02:34:24;99100.16;;;-5.07;62.47
21359;BME280;13506;50.852;20.632;2024-01-11T02:36:56;99106.13;;;-5.04;62.16
21359;BME280;13506;50.852;20.632;2024-01-11T02:39:25;99083.22;;;-5.08;62.79
21359;BME280;13506;50.852;20.632;2024-01-11T02:41:55;99081.53;;;-5.08;62.66
21359;BME280;13506;50.852;20.632;2024-01-11T02:44:24;99083.22;;;-5.10;62.55
21359;BME280;13506;50.852;20.632;2024-01-11T02:46:52;99075.56;;;-5.12;62.29
21359;BME280;13506;50.852;20.632;2024-01-11T02:49:19;99073.00;;;-5.13;62.40
21359;BME280;13506;50.852;20.632;2024-01-11T02:51:47;99084.84;;;-5.14;62.67
21359;BME280;13506;50.852;20.632;2024-01-11T02:54:15;99078.94;;;-5.14;62.48
21359;BME280;13506;50.852;20.632;2024-01-11T02:56:45;99080.59;;;-5.15;62.51
21359;BME280;13506;50.852;20.632;2024-01-11T02:59:12;99073.81;;;-5.16;62.96
21359;BME280;13506;50.852;20.632;2024-01-11T03:01:42;99072.84;;;-5.24;62.32
21359;BME280;13506;50.852;20.632;2024-01-11T03:04:10;99078.81;;;-5.20;62.93
21359;BME280;13506;50.852;20.632;2024-01-11T03:06:38;99100.78;;;-5.19;62.43
21359;BME280;13506;50.852;20.632;2024-01-11T03:09:06;99091.44;;;-5.25;62.46
21359;BME280;13506;50.852;20.632;2024-01-11T03:11:34;99093.94;;;-5.26;62.95
21359;BME280;13506;50.852;20.632;2024-01-11T03:14:03;99093.97;;;-5.25;62.97
21359;BME280;13506;50.852;20.632;2024-01-11T03:16:31;99090.59;;;-5.24;63.43
21359;BME280;13506;50.852;20.632;2024-01-11T03:18:58;99086.34;;;-5.25;62.76
21359;BME280;13506;50.852;20.632;2024-01-11T03:21:27;99074.53;;;-5.24;63.47
21359;BME280;13506;50.852;20.632;2024-01-11T03:23:55;99069.38;;;-5.27;63.15
21359;BME280;13506;50.852;20.632;2024-01-11T03:26:23;99077.06;;;-5.24;63.19
21359;BME280;13506;50.852;20.632;2024-01-11T03:28:51;99060.19;;;-5.22;63.39
21359;BME280;13506;50.852;20.632;2024-01-11T03:31:20;99064.44;;;-5.20;63.49
21359;BME280;13506;50.852;20.632;2024-01-11T03:33:48;99070.38;;;-5.19;63.15
21359;BME280;13506;50.852;20.632;2024-01-11T03:36:16;99075.41;;;-5.21;63.97
21359;BME280;13506;50.852;20.632;2024-01-11T03:38:44;99054.38;;;-5.15;62.67
21359;BME280;13506;50.852;20.632;2024-01-11T03:41:12;99054.34;;;-5.17;62.85
21359;BME280;13506;50.852;20.632;2024-01-11T03:43:39;99056.97;;;-5.12;63.55
21359;BME280;13506;50.852;20.632;2024-01-11T03:46:07;99056.13;;;-5.11;63.15
21359;BME280;13506;50.852;20.632;2024-01-11T03:48:37;99037.59;;;-5.07;63.59
21359;BME280;13506;50.852;20.632;2024-01-11T03:51:05;99036.00;;;-5.00;63.47
21359;BME280;13506;50.852;20.632;2024-01-11T03:53:35;99032.63;;;-5.01;63.41
21359;BME280;13506;50.852;20.632;2024-01-11T03:56:04;99031.00;;;-4.96;63.66
21359;BME280;13506;50.852;20.632;2024-01-11T03:58:32;99031.06;;;-4.93;63.41
21359;BME280;13506;50.852;20.632;2024-01-11T04:01:00;99025.19;;;-4.90;62.99
21359;BME280;13506;50.852;20.632;2024-01-11T04:03:28;99018.44;;;-4.88;63.50
21359;BME280;13506;50.852;20.632;2024-01-11T04:05:58;99015.06;;;-4.87;62.87
21359;BME280;13506;50.852;20.632;2024-01-11T04:08:25;99019.22;;;-4.92;63.17
21359;BME280;13506;50.852;20.632;2024-01-11T04:10:55;99024.34;;;-4.91;63.27
21359;BME280;13506;50.852;20.632;2024-01-11T04:13:23;99015.75;;;-4.99;63.41
21359;BME280;13506;50.852;20.632;2024-01-11T04:15:52;99028.41;;;-5.00;63.09
21359;BME280;13506;50.852;20.632;2024-01-11T04:18:19;99010.72;;;-4.96;62.48
21359;BME280;13506;50.852;20.632;2024-01-11T04:20:47;99009.06;;;-4.94;62.62
21359;BME280;13506;50.852;20.632;2024-01-11T04:23:16;99004.78;;;-4.96;62.56
21359;BME280;13506;50.852;20.632;2024-01-11T04:25:46;98996.38;;;-4.94;62.22
21359;BME280;13506;50.852;20.632;2024-01-11T04:28:13;99001.47;;;-4.92;62.27
21359;BME280;13506;50.852;20.632;2024-01-11T04:30:42;98982.88;;;-4.91;62.20
21359;BME280;13506;50.852;20.632;2024-01-11T04:33:09;98973.59;;;-4.89;62.00
21359;BME280;13506;50.852;20.632;2024-01-11T04:35:38;98962.59;;;-4.89;62.31
21359;BME280;13506;50.852;20.632;2024-01-11T04:38:05;98968.56;;;-4.87;62.39
21359;BME280;13506;50.852;20.632;2024-01-11T04:40:35;98968.56;;;-4.87;62.38
21359;BME280;13506;50.852;20.632;2024-01-11T04:43:03;98968.56;;;-4.86;62.02
21359;BME280;13506;50.852;20.632;2024-01-11T04:45:31;98965.97;;;-4.89;61.92
21359;BME280;13506;50.852;20.632;2024-01-11T04:47:58;98968.56;;;-4.87;61.99
21359;BME280;13506;50.852;20.632;2024-01-11T04:50:27;98969.41;;;-4.87;61.71
21359;BME280;13506;50.852;20.632;2024-01-11T04:52:54;98974.50;;;-4.85;62.71
21359;BME280;13506;50.852;20.632;2024-01-11T04:55:22;98972.78;;;-4.88;62.08
21359;BME280;13506;50.852;20.632;2024-01-11T04:57:52;98963.47;;;-4.87;62.24
21359;BME280;13506;50.852;20.632;2024-01-11T05:00:20;98959.28;;;-4.85;62.45
21359;BME280;13506;50.852;20.632;2024-01-11T05:02:47;98967.50;;;-5.03;62.65
21359;BME280;13506;50.852;20.632;2024-01-11T05:05:16;98970.22;;;-4.89;62.31
21359;BME280;13506;50.852;20.632;2024-01-11T05:07:44;98960.06;;;-4.89;62.21
21359;BME280;13506;50.852;20.632;2024-01-11T05:10:12;98965.19;;;-4.86;61.80
21359;BME280;13506;50.852;20.632;2024-01-11T05:12:40;98952.47;;;-4.88;61.92
21359;BME280;13506;50.852;20.632;2024-01-11T05:15:11;98940.66;;;-4.86;62.53
21359;BME280;13506;50.852;20.632;2024-01-11T05:17:38;98943.25;;;-4.84;62.19
21359;BME280;13506;50.852;20.632;2024-01-11T05:20:07;98937.38;;;-4.79;61.81
21359;BME280;13506;50.852;20.632;2024-01-11T05:22:35;98931.53;;;-4.73;61.64
21359;BME280;13506;50.852;20.632;2024-01-11T05:25:04;98929.88;;;-4.71;61.59
21359;BME280;13506;50.852;20.632;2024-01-11T05:27:32;98921.47;;;-4.67;61.17
21359;BME280;13506;50.852;20.632;2024-01-11T05:30:00;98909.66;;;-4.62;61.10
21359;BME280;13506;50.852;20.632;2024-01-11T05:32:29;98889.34;;;-4.62;60.79
21359;BME280;13506;50.852;20.632;2024-01-11T05:34:57;98879.25;;;-4.59;61.24
21359;BME280;13506;50.852;20.632;2024-01-11T05:37:25;98866.56;;;-4.59;61.19
21359;BME280;13506;50.852;20.632;2024-01-11T05:39:53;98874.94;;;-4.67;60.38
21359;BME280;13506;50.852;20.632;2024-01-11T05:42:23;98869.00;;;-4.69;61.23
21359;BME280;13506;50.852;20.632;2024-01-11T05:44:52;98874.09;;;-4.66;61.20
21359;BME280;13506;50.852;20.632;2024-01-11T05:47:20;98896.81;;;-4.77;61.48
21359;BME280;13506;50.852;20.632;2024-01-11T05:49:49;98884.19;;;-4.71;61.14
21359;BME280;13506;50.852;20.632;2024-01-11T05:52:17;98872.41;;;-4.66;61.07
21359;BME280;13506;50.852;20.632;2024-01-11T05:54:45;98870.78;;;-4.58;61.25
21359;BME280;13506;50.852;20.632;2024-01-11T05:57:13;98877.66;;;-4.51;61.13
21359;BME280;13506;50.852;20.632;2024-01-11T05:59:44;98877.66;;;-4.51;60.97
21359;BME280;13506;50.852;20.632;2024-01-11T06:02:12;98875.19;;;-4.43;60.70
21359;BME280;13506;50.852;20.632;2024-01-11T06:04:40;98866.81;;;-4.33;61.00
21359;BME280;13506;50.852;20.632;2024-01-11T06:07:11;98866.94;;;-4.22;60.58
21359;BME280;13506;50.852;20.632;2024-01-11T06:09:39;98850.94;;;-4.15;60.35
21359;BME280;13506;50.852;20.632;2024-01-11T06:12:07;98850.13;;;-4.09;60.27
21359;BME280;13506;50.852;20.632;2024-01-11T06:14:35;98864.56;;;-4.00;59.92
21359;BME280;13506;50.852;20.632;2024-01-11T06:17:03;98863.81;;;-3.92;59.98
21359;BME280;13506;50.852;20.632;2024-01-11T06:19:32;98862.19;;;-3.85;59.91
21359;BME280;13506;50.852;20.632;2024-01-11T06:21:59;98862.22;;;-3.77;59.53
21359;BME280;13506;50.852;20.632;2024-01-11T06:24:29;98832.59;;;-3.75;59.23
21359;BME280;13506;50.852;20.632;2024-01-11T06:26:56;98839.44;;;-3.66;58.94
21359;BME280;13506;50.852;20.632;2024-01-11T06:29:27;98846.22;;;-3.65;58.42
21359;BME280;13506;50.852;20.632;2024-01-11T06:31:55;98849.63;;;-3.63;58.64
21359;BME280;13506;50.852;20.632;2024-01-11T06:34:23;98844.59;;;-3.54;58.50
21359;BME280;13506;50.852;20.632;2024-01-11T06:36:51;98831.06;;;-3.50;58.24
21359;BME280;13506;50.852;20.632;2024-01-11T06:39:19;98839.59;;;-3.45;58.63
21359;BME280;13506;50.852;20.632;2024-01-11T06:41:48;98849.78;;;-3.40;58.30
21359;BME280;13506;50.852;20.632;2024-01-11T06:44:16;98828.59;;;-3.39;57.56
21359;BME280;13506;50.852;20.632;2024-01-11T06:46:45;98836.22;;;-3.35;58.32
21359;BME280;13506;50.852;20.632;2024-01-11T06:49:13;98841.31;;;-3.38;57.41
21359;BME280;13506;50.852;20.632;2024-01-11T06:51:41;98822.69;;;-3.31;58.02
21359;BME280;13506;50.852;20.632;2024-01-11T06:54:09;98833.75;;;-3.30;57.65
21359;BME280;13506;50.852;20.632;2024-01-11T06:56:38;98833.75;;;-3.25;57.41
21359;BME280;13506;50.852;20.632;2024-01-11T06:59:07;98827.88;;;-3.17;57.30
21359;BME280;13506;50.852;20.632;2024-01-11T07:01:35;98824.47;;;-3.17;57.56
21359;BME280;13506;50.852;20.632;2024-01-11T07:04:03;98827.06;;;-3.08;57.44
21359;BME280;13506;50.852;20.632;2024-01-11T07:06:31;98829.59;;;-3.05;57.08
21359;BME280;13506;50.852;20.632;2024-01-11T07:08:59;98816.03;;;-3.01;57.07
21359;BME280;13506;50.852;20.632;2024-01-11T07:11:27;98821.16;;;-2.95;57.16
21359;BME280;13506;50.852;20.632;2024-01-11T07:13:55;98813.53;;;-2.89;56.90
21359;BME280;13506;50.852;20.632;2024-01-11T07:16:24;98825.44;;;-2.84;56.70
21359;BME280;13506;50.852;20.632;2024-01-11T07:18:52;98828.88;;;-2.76;57.05
21359;BME280;13506;50.852;20.632;2024-01-11T07:21:22;98827.19;;;-2.73;56.89
21359;BME280;13506;50.852;20.632;2024-01-11T07:23:56;98835.66;;;-2.69;56.76
21359;BME280;13506;50.852;20.632;2024-01-11T07:26:24;98828.03;;;-2.69;56.73
21359;BME280;13506;50.852;20.632;2024-01-11T07:28:52;98834.84;;;-2.68;56.49
21359;BME280;13506;50.852;20.632;2024-01-11T07:31:22;98838.25;;;-2.61;56.85
21359;BME280;13506;50.852;20.632;2024-01-11T07:33:51;98846.75;;;-2.58;56.64
21359;BME280;13506;50.852;20.632;2024-01-11T07:36:19;98829.78;;;-2.53;56.68
21359;BME280;13506;50.852;20.632;2024-01-11T07:38:48;98828.94;;;-2.46;56.57
21359;BME280;13506;50.852;20.632;2024-01-11T07:41:16;98831.50;;;-2.41;56.27
21359;BME280;13506;50.852;20.632;2024-01-11T07:43:44;98819.63;;;-2.34;56.46
21359;BME280;13506;50.852;20.632;2024-01-11T07:46:11;98817.09;;;-2.28;55.88
21359;BME280;13506;50.852;20.632;2024-01-11T07:48:40;98805.19;;;-2.21;55.80
21359;BME280;13506;50.852;20.632;2024-01-11T07:51:09;98808.59;;;-2.16;55.91
21359;BME280;13506;50.852;20.632;2024-01-11T07:53:37;98792.47;;;-2.11;55.56
21359;BME280;13506;50.852;20.632;2024-01-11T07:56:05;98806.91;;;-2.00;55.61
21359;BME280;13506;50.852;20.632;2024-01-11T07:58:33;98804.34;;;-1.97;54.99
21359;BME280;13506;50.852;20.632;2024-01-11T08:01:04;98818.81;;;-1.90;54.48
21359;BME280;13506;50.852;20.632;2024-01-11T08:03:32;98806.03;;;-1.89;54.42
21359;BME280;13506;50.852;20.632;2024-01-11T08:06:01;98813.69;;;-1.86;54.34
21359;BME280;13506;50.852;20.632;2024-01-11T08:08:30;98818.78;;;-1.89;53.78
21359;BME280;13506;50.852;20.632;2024-01-11T08:10:58;98803.47;;;-1.78;53.88
21359;BME280;13506;50.852;20.632;2024-01-11T08:13:26;98797.53;;;-1.74;53.94
21359;BME280;13506;50.852;20.632;2024-01-11T08:15:54;98783.09;;;-1.73;53.53
21359;BME280;13506;50.852;20.632;2024-01-11T08:18:24;98794.13;;;-1.67;53.61
21359;BME280;13506;50.852;20.632;2024-01-11T08:20:53;98794.13;;;-1.67;53.41
21359;BME280;13506;50.852;20.632;2024-01-11T08:23:23;98788.19;;;-1.69;53.48
21359;BME280;13506;50.852;20.632;2024-01-11T08:25:52;98795.81;;;-1.62;53.36
21359;BME280;13506;50.852;20.632;2024-01-11T08:28:21;98785.63;;;-1.64;53.48
21359;BME280;13506;50.852;20.632;2024-01-11T08:30:49;98789.84;;;-1.55;53.03
21359;BME280;13506;50.852;20.632;2024-01-11T08:33:17;98792.41;;;-1.55;53.40
21359;BME280;13506;50.852;20.632;2024-01-11T08:35:45;98790.72;;;-1.50;53.41
21359;BME280;13506;50.852;20.632;2024-01-11T08:38:13;98791.56;;;-1.68;53.40
21359;BME280;13506;50.852;20.632;2024-01-11T08:40:42;98812.78;;;-1.51;53.88
21359;BME280;13506;50.852;20.632;2024-01-11T08:43:12;98793.22;;;-1.41;53.33
21359;BME280;13506;50.852;20.632;2024-01-11T08:45:40;98787.25;;;-1.31;53.19
21359;BME280;13506;50.852;20.632;2024-01-11T08:48:10;98791.47;;;-1.20;52.65
21359;BME280;13506;50.852;20.632;2024-01-11T08:50:38;98788.00;;;-1.07;52.84
21359;BME280;13506;50.852;20.632;2024-01-11T08:53:06;98768.38;;;-0.93;52.83
21359;BME280;13506;50.852;20.632;2024-01-11T08:55:34;98760.69;;;-0.90;52.46
21359;BME280;13506;50.852;20.632;2024-01-11T08:58:02;98777.72;;;-0.90;52.38
21359;BME280;13506;50.852;20.632;2024-01-11T09:00:32;98770.06;;;-0.95;52.42
21359;BME280;13506;50.852;20.632;2024-01-11T09:03:00;98771.75;;;-0.92;52.38
21359;BME280;13506;50.852;20.632;2024-01-11T09:05:28;98788.75;;;-0.87;52.54
21359;BME280;13506;50.852;20.632;2024-01-11T09:07:56;98783.63;;;-0.85;52.76
21359;BME280;13506;50.852;20.632;2024-01-11T09:10:24;98785.28;;;-0.76;52.84
21359;BME280;13506;50.852;20.632;2024-01-11T09:12:54;98786.13;;;-0.74;52.29
21359;BME280;13506;50.852;20.632;2024-01-11T09:15:22;98796.28;;;-0.64;52.68
21359;BME280;13506;50.852;20.632;2024-01-11T09:17:51;98795.47;;;-0.66;52.45
21359;BME280;13506;50.852;20.632;2024-01-11T09:20:19;98777.59;;;-0.66;52.70
21359;BME280;13506;50.852;20.632;2024-01-11T09:22:47;98777.66;;;-0.78;53.58
21359;BME280;13506;50.852;20.632;2024-01-11T09:25:16;98798.97;;;-0.87;53.52
21359;BME280;13506;50.852;20.632;2024-01-11T09:27:45;98796.41;;;-0.82;53.40
21359;BME280;13506;50.852;20.632;2024-01-11T09:30:13;98785.41;;;-0.95;53.87
21359;BME280;13506;50.852;20.632;2024-01-11T09:32:41;98787.16;;;-1.12;54.38
21359;BME280;13506;50.852;20.632;2024-01-11T09:35:11;98781.22;;;-1.19;54.27
21359;BME280;13506;50.852;20.632;2024-01-11T09:37:39;98776.97;;;-1.23;54.53
21359;BME280;13506;50.852;20.632;2024-01-11T09:40:09;98766.78;;;-1.21;54.66
21359;BME280;13506;50.852;20.632;2024-01-11T09:42:38;98768.53;;;-1.33;55.33
21359;BME280;13506;50.852;20.632;2024-01-11T09:45:09;98765.94;;;-1.25;55.34
21359;BME280;13506;50.852;20.632;2024-01-11T09:47:39;98770.19;;;-1.23;55.15
21359;BME280;13506;50.852;20.632;2024-01-11T09:50:10;98759.16;;;-1.26;55.78
21359;BME280;13506;50.852;20.632;2024-01-11T09:52:44;98759.16;;;-1.28;55.83
21359;BME280;13506;50.852;20.632;2024-01-11T09:55:14;98765.13;;;-1.32;56.59
21359;BME280;13506;50.852;20.632;2024-01-11T09:57:45;98765.97;;;-1.33;56.30
21359;BME280;13506;50.852;20.632;2024-01-11T10:00:16;98766.84;;;-1.37;56.71
21359;BME280;13506;50.852;20.632;2024-01-11T10:02:45;98765.16;;;-1.42;57.28
21359;BME280;13506;50.852;20.632;2024-01-11T10:05:16;98754.94;;;-1.44;57.91
21359;BME280;13506;50.852;20.632;2024-01-11T10:07:45;98754.97;;;-1.53;58.82
21359;BME280;13506;50.852;20.632;2024-01-11T10:10:14;98739.72;;;-1.70;59.46
21359;BME280;13506;50.852;20.632;2024-01-11T10:12:43;98720.19;;;-1.73;59.73
21359;BME280;13506;50.852;20.632;2024-01-11T10:15:12;98738.06;;;-1.87;60.63
21359;BME280;13506;50.852;20.632;2024-01-11T10:17:42;98748.28;;;-1.88;60.62
21359;BME280;13506;50.852;20.632;2024-01-11T10:20:11;98734.69;;;-1.96;61.39
21359;BME280;13506;50.852;20.632;2024-01-11T10:22:41;98748.28;;;-2.08;62.11
21359;BME280;13506;50.852;20.632;2024-01-11T10:25:10;98742.34;;;-2.04;62.24
21359;BME280;13506;50.852;20.632;2024-01-11T10:27:40;98749.13;;;-2.01;62.24
21359;BME280;13506;50.852;20.632;2024-01-11T10:30:10;98748.28;;;-1.94;62.10
21359;BME280;13506;50.852;20.632;2024-01-11T10:32:39;98736.41;;;-2.05;62.99
21359;BME280;13506;50.852;20.632;2024-01-11T10:35:08;98766.97;;;-2.08;63.26
21359;BME280;13506;50.852;20.632;2024-01-11T10:37:37;98735.53;;;-2.00;63.19
21359;BME280;13506;50.852;20.632;2024-01-11T10:40:09;98735.56;;;-2.11;63.69
21359;BME280;13506;50.852;20.632;2024-01-11T10:42:42;98737.22;;;-1.99;63.56
21359;BME280;13506;50.852;20.632;2024-01-11T10:45:15;98738.09;;;-2.07;63.50
21359;BME280;13506;50.852;20.632;2024-01-11T10:47:51;98724.47;;;-1.99;63.50
21359;BME280;13506;50.852;20.632;2024-01-11T10:50:22;98705.78;;;-1.95;63.48
21359;BME280;13506;50.852;20.632;2024-01-11T10:53:02;98713.44;;;-2.01;64.13
21359;BME280;13506;50.852;20.632;2024-01-11T10:55:34;98711.75;;;-2.04;64.40
21359;BME280;13506;50.852;20.632;2024-01-11T10:58:03;98709.22;;;-2.13;65.10
21359;BME280;13506;50.852;20.632;2024-01-11T11:00:31;98702.41;;;-2.10;64.55
21359;BME280;13506;50.852;20.632;2024-01-11T11:03:04;98700.69;;;-2.08;64.68
21359;BME280;13506;50.852;20.632;2024-01-11T11:05:35;98687.97;;;-2.00;64.56
21359;BME280;13506;50.852;20.632;2024-01-11T11:08:04;98676.91;;;-1.88;64.18
21359;BME280;13506;50.852;20.632;2024-01-11T11:10:35;98668.34;;;-1.76;63.99
21359;BME280;13506;50.852;20.632;2024-01-11T11:13:05;98664.94;;;-1.74;63.94
21359;BME280;13506;50.852;20.632;2024-01-11T11:15:34;98667.47;;;-1.66;64.31
21359;BME280;13506;50.852;20.632;2024-01-11T11:18:03;98666.59;;;-1.62;64.54
21359;BME280;13506;50.852;20.632;2024-01-11T11:20:34;98667.41;;;-1.54;64.61
21359;BME280;13506;50.852;20.632;2024-01-11T11:23:06;98674.16;;;-1.40;64.45
21359;BME280;13506;50.852;20.632;2024-01-11T11:25:38;98676.66;;;-1.30;64.27
21359;BME280;13506;50.852;20.632;2024-01-11T11:28:07;98664.72;;;-1.28;64.09
21359;BME280;13506;50.852;20.632;2024-01-11T11:30:37;98660.47;;;-1.24;64.10
21359;BME280;13506;50.852;20.632;2024-01-11T11:33:10;98667.28;;;-1.29;64.04
21359;BME280;13506;50.852;20.632;2024-01-11T11:35:38;98663.84;;;-1.25;64.90
21359;BME280;13506;50.852;20.632;2024-01-11T11:38:06;98666.38;;;-1.17;63.98
21359;BME280;13506;50.852;20.632;2024-01-11T11:40:38;98679.16;;;-1.25;64.00
21359;BME280;13506;50.852;20.632;2024-01-11T11:43:07;98673.16;;;-1.13;63.96
21359;BME280;13506;50.852;20.632;2024-01-11T11:45:35;98678.22;;;-1.10;64.06
21359;BME280;13506;50.852;20.632;2024-01-11T11:48:47;98673.13;;;-1.07;63.96
21359;BME280;13506;50.852;20.632;2024-01-11T11:51:16;98661.16;;;-1.02;64.03
21359;BME280;13506;50.852;20.632;2024-01-11T11:53:48;98646.75;;;-1.08;64.50
21359;BME280;13506;50.852;20.632;2024-01-11T11:56:19;98641.59;;;-0.98;64.38
21359;BME280;13506;50.852;20.632;2024-01-11T11:58:48;98642.38;;;-0.93;64.64
21359;BME280;13506;50.852;20.632;2024-01-11T12:01:19;98642.34;;;-0.83;64.21
21359;BME280;13506;50.852;20.632;2024-01-11T12:03:47;98638.00;;;-0.73;64.20
21359;BME280;13506;50.852;20.632;2024-01-11T12:06:18;98641.38;;;-0.68;64.10
21359;BME280;13506;50.852;20.632;2024-01-11T12:08:48;98624.25;;;-0.59;63.89
21359;BME280;13506;50.852;20.632;2024-01-11T12:11:19;98602.91;;;-0.54;63.48
21359;BME280;13506;50.852;20.632;2024-01-11T12:13:49;98603.69;;;-0.47;63.61
21359;BME280;13506;50.852;20.632;2024-01-11T12:16:20;98609.72;;;-0.53;63.81
21359;BME280;13506;50.852;20.632;2024-01-11T12:18:49;98619.09;;;-0.52;64.14
21359;BME280;13506;50.852;20.632;2024-01-11T12:21:18;98619.97;;;-0.54;64.38
21359;BME280;13506;50.852;20.632;2024-01-11T12:23:47;98621.63;;;-0.53;64.58
21359;BME280;13506;50.852;20.632;2024-01-11T12:26:16;98623.34;;;-0.51;64.48
21359;BME280;13506;50.852;20.632;2024-01-11T12:28:50;98610.56;;;-0.51;65.04
21359;BME280;13506;50.852;20.632;2024-01-11T12:31:18;98607.97;;;-0.48;64.57
21359;BME280;13506;50.852;20.632;2024-01-11T12:33:48;98610.53;;;-0.48;66.18
21359;BME280;13506;50.852;20.632;2024-01-11T12:36:17;98596.03;;;-0.46;65.98
21359;BME280;13506;50.852;20.632;2024-01-11T12:38:48;98602.03;;;-0.48;66.53
21359;BME280;13506;50.852;20.632;2024-01-11T12:41:17;98591.81;;;-0.50;66.88
21359;BME280;13506;50.852;20.632;2024-01-11T12:43:45;98604.63;;;-0.53;67.64
21359;BME280;13506;50.852;20.632;2024-01-11T12:46:14;98596.97;;;-0.57;67.77
21359;BME280;13506;50.852;20.632;2024-01-11T12:48:42;98596.13;;;-0.58;67.76
21359;BME280;13506;50.852;20.632;2024-01-11T12:51:10;98592.75;;;-0.57;67.89
21359;BME280;13506;50.852;20.632;2024-01-11T12:53:39;98595.31;;;-0.62;68.70
21359;BME280;13506;50.852;20.632;2024-01-11T12:56:08;98591.91;;;-0.60;68.10
21359;BME280;13506;50.852;20.632;2024-01-11T12:58:37;98591.06;;;-0.63;68.98